Time;durP1;ratioP1;P1;durP2;ratioP2;P2;SDS_P1;SDS_P2;PMS_P1;PMS_P2;Temp;Humidity;BMP_temperature;BMP_pressure;BME280_temperature;BME280_humidity;BME280_pressure;Samples;Min_cycle;Max_cycle;Signal;HPM_P1;HPM_P2
2022/07/29 00:00:26;;;;;;;2.72;1.60;;;;;;;16.88;100.00;96564.41;5035743;28;20512;-67
2022/07/29 00:02:52;;;;;;;3.40;1.73;;;;;;;16.95;100.00;96558.81;5032169;28;20397;-68
2022/07/29 00:05:17;;;;;;;3.63;1.98;;;;;;;16.96;100.00;96568.66;5021117;28;20072;-65
2022/07/29 00:07:43;;;;;;;5.10;1.73;;;;;;;17.07;100.00;96566.59;5024194;28;20402;-67
2022/07/29 00:10:08;;;;;;;5.72;1.73;;;;;;;16.92;100.00;96570.69;5019450;28;20037;-69
2022/07/29 00:12:34;;;;;;;2.97;1.90;;;;;;;16.83;100.00;96568.41;5024420;28;20389;-68
2022/07/29 00:14:59;;;;;;;3.05;2.08;;;;;;;16.86;100.00;96564.81;5024576;28;20351;-68
2022/07/29 00:17:25;;;;;;;4.00;1.95;;;;;;;16.90;100.00;96573.88;5015021;28;20525;-68
2022/07/29 00:19:51;;;;;;;6.65;1.70;;;;;;;16.87;100.00;96565.59;5019888;28;20049;-68
2022/07/29 00:22:16;;;;;;;3.15;1.67;;;;;;;16.89;100.00;96568.75;5019419;28;20421;-67
2022/07/29 00:24:42;;;;;;;3.03;1.52;;;;;;;16.87;100.00;96563.63;5024033;28;20092;-68
2022/07/29 00:27:07;;;;;;;5.50;1.70;;;;;;;16.87;100.00;96562.84;5017085;28;20046;-68
2022/07/29 00:29:32;;;;;;;4.50;1.80;;;;;;;16.88;100.00;96570.72;5019093;28;20042;-68
2022/07/29 00:31:58;;;;;;;2.70;1.50;;;;;;;16.90;100.00;96557.25;5017776;28;20037;-68
2022/07/29 00:37:07;;;;;;;4.78;1.75;;;;;;;16.88;100.00;96565.19;5015436;28;20140;-69
2022/07/29 00:39:33;;;;;;;4.30;1.85;;;;;;;16.85;100.00;96546.66;5023971;28;20166;-67
2022/07/29 00:41:58;;;;;;;2.90;1.52;;;;;;;16.82;100.00;96547.47;5023184;28;20059;-68
2022/07/29 00:44:23;;;;;;;3.75;1.80;;;;;;;16.71;100.00;96546.78;5011101;28;20836;-69
2022/07/29 00:46:49;;;;;;;3.95;2.08;;;;;;;16.64;100.00;96539.34;5021148;28;20065;-65
2022/07/29 00:49:14;;;;;;;2.95;1.70;;;;;;;16.65;100.00;96546.44;5032120;28;20036;-68
2022/07/29 00:51:40;;;;;;;3.03;1.60;;;;;;;16.66;100.00;96538.94;5029416;28;20041;-68
2022/07/29 00:54:06;;;;;;;4.95;1.92;;;;;;;16.63;100.00;96535.78;5030296;28;20032;-69
2022/07/29 00:56:33;;;;;;;3.28;1.88;;;;;;;16.54;100.00;96532.72;5031145;28;20129;-68
2022/07/29 00:58:59;;;;;;;3.67;1.67;;;;;;;16.54;100.00;96538.25;5031205;28;20504;-67
2022/07/29 01:01:25;;;;;;;2.72;1.80;;;;;;;16.55;100.00;96536.28;5029962;28;20124;-67
2022/07/29 01:03:50;;;;;;;4.97;1.67;;;;;;;16.57;100.00;96536.66;5031140;28;20100;-68
2022/07/29 01:06:17;;;;;;;3.22;1.67;;;;;;;16.56;100.00;96535.84;5029326;28;20032;-68
2022/07/29 01:08:44;;;;;;;3.97;1.98;;;;;;;16.56;100.00;96533.09;5031449;28;20431;-67
2022/07/29 01:11:11;;;;;;;4.82;1.90;;;;;;;16.55;100.00;96530.75;5029628;28;20595;-68
2022/07/29 01:13:36;;;;;;;3.28;2.22;;;;;;;16.51;100.00;96522.50;5031014;28;20021;-67
2022/07/29 01:16:17;;;;;;;5.10;2.47;;;;;;;16.53;100.00;96528.41;5030375;28;20029;-67
2022/07/29 01:18:49;;;;;;;2.58;1.60;;;;;;;16.53;100.00;96525.63;5029109;28;20116;-68
2022/07/29 01:21:20;;;;;;;3.47;1.50;;;;;;;16.54;100.00;96523.66;5026511;28;20027;-67
2022/07/29 01:24:15;;;;;;;4.05;1.60;;;;;;;16.52;100.00;96518.53;5030675;28;20034;-68
2022/07/29 01:26:46;;;;;;;4.00;1.75;;;;;;;16.51;100.00;96521.69;5028775;28;20041;-69
2022/07/29 01:29:32;;;;;;;4.65;1.65;;;;;;;16.55;100.00;96516.94;5031160;28;20033;-69
2022/07/29 01:32:24;;;;;;;2.90;1.70;;;;;;;16.60;100.00;96506.22;5029007;28;20057;-68
2022/07/29 01:35:01;;;;;;;2.58;1.70;;;;;;;16.59;100.00;96510.16;5030734;28;20063;-66
2022/07/29 01:37:39;;;;;;;4.25;2.10;;;;;;;16.57;100.00;96503.47;5030364;28;20025;-67
2022/07/29 01:40:08;;;;;;;4.03;2.05;;;;;;;16.50;100.00;96504.34;5031674;28;20144;-68
2022/07/29 01:42:44;;;;;;;2.80;1.57;;;;;;;16.48;100.00;96500.41;5029359;28;20037;-68
2022/07/29 01:45:34;;;;;;;5.20;1.85;;;;;;;16.50;100.00;96495.25;5030169;28;20104;-68
2022/07/29 01:48:06;;;;;;;;;;;;;;;16.48;100.00;96501.19;5026891;28;20056;-67
2022/07/29 01:50:37;;;;;;;3.95;1.77;;;;;;;16.58;100.00;96497.53;5026274;28;19913;-67
2022/07/29 01:53:08;;;;;;;3.35;1.88;;;;;;;16.62;100.00;96491.97;5027543;28;20055;-67
2022/07/29 01:55:42;;;;;;;6.15;1.65;;;;;;;16.61;100.00;96496.69;5028299;28;20513;-68
2022/07/29 01:58:09;;;;;;;6.40;2.10;;;;;;;16.58;100.00;96499.50;5030059;28;20509;-67
2022/07/29 02:00:35;;;;;;;3.08;1.65;;;;;;;16.58;100.00;96497.53;5029241;28;20036;-67
2022/07/29 02:03:07;;;;;;;4.07;2.10;;;;;;;16.56;100.00;96494.38;5029565;28;20079;-67
2022/07/29 02:05:35;;;;;;;3.72;1.55;;;;;;;16.57;100.00;96501.50;5029633;28;20409;-67
2022/07/29 02:08:02;;;;;;;3.58;1.70;;;;;;;16.55;100.00;96501.13;5028439;28;20025;-68
2022/07/29 02:10:30;;;;;;;3.25;1.60;;;;;;;16.52;100.00;96492.88;5029155;28;20033;-67
2022/07/29 02:12:57;;;;;;;6.75;1.80;;;;;;;16.52;100.00;96496.41;5028161;28;20026;-68
2022/07/29 02:15:26;;;;;;;4.70;2.00;;;;;;;16.51;100.00;96496.81;5028380;28;20032;-67
2022/07/29 02:17:56;;;;;;;2.65;1.50;;;;;;;16.52;100.00;96498.41;5029801;28;20030;-67
2022/07/29 02:20:22;;;;;;;;;;;;;;;16.55;100.00;96498.34;5032191;28;20018;-67
2022/07/29 02:22:49;;;;;;;3.20;1.70;;;;;;;16.57;100.00;96497.94;5037685;28;19928;-68
2022/07/29 02:25:16;;;;;;;2.60;1.60;;;;;;;16.54;100.00;96494.00;5030487;28;20044;-67
2022/07/29 02:27:43;;;;;;;2.83;1.38;;;;;;;16.67;100.00;96502.56;5031115;28;20038;-67
2022/07/29 02:30:09;;;;;;;4.18;1.50;;;;;;;16.93;100.00;96500.34;5031139;28;20442;-66
2022/07/29 02:32:37;;;;;;;5.18;2.08;;;;;;;16.88;100.00;96501.56;5048534;28;20040;-66
2022/07/29 02:35:04;;;;;;;3.13;1.73;;;;;;;16.56;100.00;96493.59;5050325;28;20044;-69
2022/07/29 02:37:31;;;;;;;6.93;2.00;;;;;;;16.44;100.00;96500.44;5043042;28;20033;-67
2022/07/29 02:39:58;;;;;;;3.63;2.08;;;;;;;16.31;100.00;96491.88;5029271;28;20059;-68
2022/07/29 02:42:26;;;;;;;3.88;2.13;;;;;;;16.26;100.00;96486.81;5031436;28;20060;-68
2022/07/29 02:44:52;;;;;;;3.65;1.67;;;;;;;16.22;100.00;96492.38;5029803;28;20486;-68
2022/07/29 02:47:57;;;;;;;4.53;1.90;;;;;;;16.22;100.00;96486.84;5035028;28;20057;-68
2022/07/29 02:50:33;;;;;;;4.05;1.35;;;;;;;16.50;100.00;96490.50;4976299;28;20061;-69
2022/07/29 02:53:05;;;;;;;6.15;1.80;;;;;;;16.81;100.00;96490.56;4975246;28;20060;-67
2022/07/29 02:55:39;;;;;;;3.13;1.83;;;;;;;16.97;100.00;96493.56;5009756;28;20092;-68
2022/07/29 02:58:22;;;;;;;9.23;1.98;;;;;;;17.04;100.00;96497.44;5031855;28;20029;-68
2022/07/29 03:00:51;;;;;;;8.25;2.13;;;;;;;17.19;100.00;96501.59;5031247;28;20215;-68
2022/07/29 03:03:18;;;;;;;3.22;1.67;;;;;;;17.28;100.00;96504.63;5031130;28;20044;-68
2022/07/29 03:05:44;;;;;;;3.40;1.83;;;;;;;17.34;100.00;96505.75;5030868;28;20528;-68
2022/07/29 03:08:11;;;;;;;4.63;1.88;;;;;;;17.30;100.00;96501.44;5030843;28;20033;-68
2022/07/29 03:10:43;;;;;;;5.88;1.98;;;;;;;17.32;100.00;96490.75;5032638;28;20545;-68
2022/07/29 03:13:09;;;;;;;8.35;2.25;;;;;;;17.41;100.00;96502.09;5031170;28;20029;-68
2022/07/29 03:15:37;;;;;;;4.05;2.00;;;;;;;17.38;100.00;96494.63;5043761;28;20029;-68
2022/07/29 03:18:03;;;;;;;4.60;2.03;;;;;;;17.35;100.00;96493.47;5048678;28;20037;-66
2022/07/29 03:20:29;;;;;;;5.43;2.38;;;;;;;17.07;100.00;96488.31;5048099;28;20029;-69
2022/07/29 03:22:54;;;;;;;5.43;2.17;;;;;;;16.81;100.00;96485.81;5031223;28;20042;-69
2022/07/29 03:25:20;;;;;;;5.88;2.60;;;;;;;16.94;100.00;96485.31;5030606;28;20029;-67
2022/07/29 03:27:47;;;;;;;6.03;2.20;;;;;;;17.07;100.00;96497.41;5030909;28;20047;-66
2022/07/29 03:30:13;;;;;;;4.97;2.47;;;;;;;17.11;100.00;96494.59;5031070;28;20026;-68
2022/07/29 03:32:40;;;;;;;4.72;2.22;;;;;;;17.01;100.00;96499.03;5049273;28;20041;-69
2022/07/29 03:35:07;;;;;;;6.65;2.35;;;;;;;16.81;100.00;96502.41;5031637;28;20032;-66
2022/07/29 03:37:33;;;;;;;5.78;2.28;;;;;;;16.68;100.00;96498.63;5024043;28;20061;-68
2022/07/29 03:40:01;;;;;;;4.18;1.95;;;;;;;16.73;100.00;96503.69;5025977;28;20033;-66
2022/07/29 03:42:31;;;;;;;4.03;2.42;;;;;;;16.47;100.00;96505.16;5030782;28;20029;-66
2022/07/29 03:45:00;;;;;;;5.00;2.80;;;;;;;16.46;100.00;96502.78;5030361;28;20087;-67
2022/07/29 03:47:28;;;;;;;3.63;2.17;;;;;;;16.50;100.00;96501.56;5022631;28;20032;-68
2022/07/29 03:50:05;;;;;;;4.53;2.30;;;;;;;16.73;100.00;96503.69;5030412;28;20475;-66
2022/07/29 03:52:31;;;;;;;5.32;2.78;;;;;;;16.52;100.00;96509.44;5030706;28;20038;-67
2022/07/29 03:54:57;;;;;;;3.35;2.38;;;;;;;16.56;100.00;96516.50;5030878;28;20056;-67
2022/07/29 03:57:25;;;;;;;4.07;2.40;;;;;;;16.79;100.00;96513.09;5029105;28;20482;-68
2022/07/29 03:59:53;;;;;;;4.53;2.17;;;;;;;16.88;100.00;96514.63;5030669;28;20048;-66
2022/07/29 04:02:19;;;;;;;7.88;2.38;;;;;;;16.99;100.00;96509.75;5030116;28;20037;-67
2022/07/29 04:04:45;;;;;;;4.93;2.05;;;;;;;17.00;100.00;96517.63;5030411;28;20029;-66
2022/07/29 04:07:14;;;;;;;6.35;2.03;;;;;;;17.12;100.00;96510.75;5028946;28;20032;-67
2022/07/29 04:09:41;;;;;;;6.00;2.30;;;;;;;16.98;100.00;96497.13;5030528;28;20030;-68
2022/07/29 04:12:06;;;;;;;9.52;2.58;;;;;;;16.60;100.00;96495.16;5033817;28;20037;-65
2022/07/29 04:14:33;;;;;;;8.68;3.03;;;;;;;16.21;100.00;96501.06;5032473;28;20508;-68
2022/07/29 04:16:59;;;;;;;4.30;2.60;;;;;;;16.19;100.00;96495.94;5025457;28;20029;-68
2022/07/29 04:19:24;;;;;;;6.50;2.28;;;;;;;16.38;100.00;96500.09;5034003;28;20033;-67
2022/07/29 04:21:50;;;;;;;6.85;2.90;;;;;;;16.43;100.00;96505.19;5034089;28;20052;-66
2022/07/29 04:24:16;;;;;;;4.50;2.20;;;;;;;16.69;100.00;96508.50;5033870;28;20037;-68
2022/07/29 04:26:42;;;;;;;5.65;2.70;;;;;;;17.07;100.00;96515.97;5033230;28;20037;-67
2022/07/29 04:29:07;;;;;;;6.55;2.72;;;;;;;17.25;100.00;96522.09;5033420;28;20034;-65
2022/07/29 04:31:33;;;;;;;4.20;2.08;;;;;;;17.47;100.00;96528.13;5033415;28;20037;-66
2022/07/29 04:33:58;;;;;;;3.33;2.20;;;;;;;17.56;100.00;96528.38;5033550;28;20056;-67
2022/07/29 04:36:23;;;;;;;3.80;2.38;;;;;;;17.56;100.00;96527.59;5033533;28;20033;-68
2022/07/29 04:38:49;;;;;;;3.90;2.20;;;;;;;17.56;100.00;96533.94;5033488;28;20036;-67
2022/07/29 04:41:14;;;;;;;5.13;2.20;;;;;;;17.56;100.00;96542.22;5032338;28;20064;-66
2022/07/29 04:43:39;;;;;;;4.75;1.90;;;;;;;17.50;100.00;96534.78;5032607;28;20040;-68
2022/07/29 04:46:06;;;;;;;5.97;2.47;;;;;;;17.46;100.00;96536.84;5024860;28;20367;-68
2022/07/29 04:48:31;;;;;;;4.32;2.40;;;;;;;17.35;100.00;96536.97;5033362;28;20375;-68
2022/07/29 04:50:57;;;;;;;5.20;2.13;;;;;;;17.44;100.00;96537.25;5033450;28;20044;-68
2022/07/29 04:53:23;;;;;;;5.18;2.30;;;;;;;17.57;100.00;96543.00;5033267;28;20091;-68
2022/07/29 04:55:48;;;;;;;6.72;1.85;;;;;;;17.77;100.00;96552.22;5032707;28;20064;-68
2022/07/29 04:58:14;;;;;;;3.72;1.85;;;;;;;17.89;100.00;96550.13;5025549;28;20052;-68
2022/07/29 05:00:39;;;;;;;6.13;2.20;;;;;;;17.52;100.00;96543.47;5028538;28;20104;-68
2022/07/29 05:03:05;;;;;;;8.20;2.20;;;;;;;17.67;100.00;96538.53;5029867;28;20038;-67
2022/07/29 05:05:30;;;;;;;6.38;2.60;;;;;;;17.31;100.00;96539.78;5036054;28;20036;-68
2022/07/29 05:07:56;;;;;;;7.53;2.78;;;;;;;16.84;100.00;96536.03;5032568;28;20033;-67
2022/07/29 05:10:22;;;;;;;5.63;2.97;;;;;;;16.85;100.00;96529.28;5030289;28;20449;-66
2022/07/29 05:12:47;;;;;;;11.32;2.97;;;;;;;17.02;100.00;96533.06;5042441;28;20042;-67
2022/07/29 05:15:13;;;;;;;7.43;2.72;;;;;;;16.94;100.00;96537.88;5051244;28;20085;-67
2022/07/29 05:17:39;;;;;;;6.45;3.08;;;;;;;16.87;100.00;96537.94;5048839;28;20029;-67
2022/07/29 05:20:05;;;;;;;6.20;2.90;;;;;;;17.05;100.00;96537.75;5038348;28;20041;-65
2022/07/29 05:22:30;;;;;;;3.72;2.65;;;;;;;17.38;100.00;96542.47;5032558;28;20512;-65
2022/07/29 05:24:56;;;;;;;3.47;2.28;;;;;;;17.55;100.00;96546.19;5032555;28;20038;-67
2022/07/29 05:27:21;;;;;;;5.40;2.67;;;;;;;17.69;100.00;96547.97;5031127;28;20067;-66
2022/07/29 05:29:47;;;;;;;5.97;2.47;;;;;;;17.74;100.00;96550.28;5032324;28;20084;-66
2022/07/29 05:32:12;;;;;;;6.78;3.08;;;;;;;17.84;100.00;96556.09;5032139;28;20053;-65
2022/07/29 05:34:38;;;;;;;5.22;2.40;;;;;;;17.85;100.00;96566.78;5031968;28;20021;-66
2022/07/29 05:37:03;;;;;;;2.92;2.03;;;;;;;17.94;100.00;96561.50;5032167;28;20029;-66
2022/07/29 05:39:29;;;;;;;4.90;3.05;;;;;;;17.92;100.00;96560.38;5032671;28;20067;-65
2022/07/29 05:41:54;;;;;;;11.20;3.00;;;;;;;17.79;100.00;96557.34;5028284;28;20557;-66
2022/07/29 05:44:20;;;;;;;3.80;2.45;;;;;;;17.31;100.00;96550.88;5036467;28;20060;-67
2022/07/29 05:46:45;;;;;;;4.93;2.78;;;;;;;17.10;100.00;96546.38;5037743;28;20045;-66
2022/07/29 05:49:10;;;;;;;7.53;2.80;;;;;;;16.63;100.00;96548.81;5040970;28;20101;-66
2022/07/29 05:51:36;;;;;;;5.75;2.70;;;;;;;16.50;100.00;96543.03;5037238;28;20042;-66
2022/07/29 05:54:01;;;;;;;9.00;3.00;;;;;;;16.43;100.00;96540.34;5032368;28;20159;-65
2022/07/29 05:56:27;;;;;;;7.38;3.40;;;;;;;16.46;100.00;96542.28;5032223;28;20516;-65
2022/07/29 05:58:53;;;;;;;8.70;3.35;;;;;;;16.50;100.00;96545.78;5032197;28;20041;-66
2022/07/29 06:01:19;;;;;;;6.82;3.60;;;;;;;16.43;100.00;96548.63;5031112;28;20048;-65
2022/07/29 06:03:44;;;;;;;4.30;2.97;;;;;;;16.65;100.00;96551.97;5023562;28;20107;-68
2022/07/29 06:06:10;;;;;;;6.93;3.28;;;;;;;16.81;100.00;96551.41;5031795;28;20112;-67
2022/07/29 06:08:36;;;;;;;5.53;3.05;;;;;;;17.10;100.00;96540.84;5032039;28;20034;-67
2022/07/29 06:11:03;;;;;;;4.40;3.00;;;;;;;17.13;100.00;96540.00;5023071;28;20088;-67
2022/07/29 06:13:29;;;;;;;6.32;2.90;;;;;;;17.14;100.00;96540.78;5031421;28;20416;-67
2022/07/29 06:15:55;;;;;;;5.28;3.00;;;;;;;17.50;100.00;96538.38;5023260;28;20061;-65
2022/07/29 06:18:23;;;;;;;3.88;2.78;;;;;;;17.84;100.00;96545.00;5032221;28;20522;-67
2022/07/29 06:20:49;;;;;;;8.90;3.03;;;;;;;17.94;100.00;96555.19;5031819;28;20036;-66
2022/07/29 06:23:15;;;;;;;4.47;2.75;;;;;;;17.97;100.00;96562.66;5031999;28;20030;-68
2022/07/29 06:25:40;;;;;;;6.88;1.92;;;;;;;18.19;100.00;96562.34;5030060;28;20033;-64
2022/07/29 06:28:06;;;;;;;5.53;2.20;;;;;;;17.95;100.00;96565.84;5026869;28;20105;-67
2022/07/29 06:30:31;;;;;;;5.60;2.05;;;;;;;17.40;100.00;96555.91;5031675;28;20486;-67
2022/07/29 06:32:57;;;;;;;4.55;1.73;;;;;;;17.33;100.00;96561.53;5031784;28;20367;-67
2022/07/29 06:35:22;;;;;;;3.33;1.52;;;;;;;17.59;100.00;96559.97;5030669;28;20017;-66
2022/07/29 06:37:48;;;;;;;6.45;1.80;;;;;;;17.92;100.00;96577.75;5031345;28;20095;-67
2022/07/29 06:42:57;;;;;;;3.40;2.08;;;;;;;17.84;100.00;96583.78;5031367;28;20060;-67
2022/07/29 06:45:24;;;;;;;6.32;2.75;;;;;;;17.61;100.00;96578.97;5036916;28;20049;-67
2022/07/29 06:47:49;;;;;;;3.00;1.70;;;;;;;17.85;100.00;96575.09;5034905;28;20155;-67
2022/07/29 06:50:15;;;;;;;3.38;2.03;;;;;;;18.17;100.00;96584.13;5035225;28;20485;-66
2022/07/29 06:52:40;;;;;;;4.57;1.90;;;;;;;18.02;100.00;96578.78;5036691;28;20036;-66
2022/07/29 06:55:07;;;;;;;3.65;2.00;;;;;;;17.92;100.00;96591.63;5034477;28;20112;-66
2022/07/29 06:57:32;;;;;;;6.03;2.30;;;;;;;18.31;100.00;96578.34;5031721;28;20029;-66
2022/07/29 06:59:58;;;;;;;4.13;1.88;;;;;;;18.14;100.00;96594.06;5030826;28;20039;-66
2022/07/29 07:02:23;;;;;;;6.45;1.90;;;;;;;18.30;100.00;96587.88;5023303;28;20448;-66
2022/07/29 07:04:48;;;;;;;3.70;1.90;;;;;;;19.15;100.00;96590.38;5031139;28;20076;-67
2022/07/29 07:07:14;;;;;;;3.00;1.63;;;;;;;20.00;100.00;96594.59;5031617;28;20044;-66
2022/07/29 07:09:39;;;;;;;2.60;1.45;;;;;;;19.32;100.00;96594.03;5036961;28;20033;-67
2022/07/29 07:12:05;;;;;;;2.78;1.60;;;;;;;19.61;100.00;96597.00;5030682;28;20083;-67
2022/07/29 07:14:31;;;;;;;3.72;1.85;;;;;;;19.18;100.00;96597.88;5030180;28;20029;-66
2022/07/29 07:16:56;;;;;;;3.53;1.52;;;;;;;19.85;100.00;96588.59;5030281;28;20037;-67
2022/07/29 07:19:22;;;;;;;3.40;1.58;;;;;;;19.85;100.00;96594.16;5029785;28;20037;-67
2022/07/29 07:21:47;;;;;;;2.53;1.30;;;;;;;20.07;100.00;96599.22;5022786;28;20044;-66
2022/07/29 07:24:13;;;;;;;2.88;1.50;;;;;;;20.03;100.00;96602.84;5029259;28;20471;-65
2022/07/29 07:26:39;;;;;;;3.40;1.65;;;;;;;20.38;100.00;96603.25;5024214;28;20030;-66
2022/07/29 07:29:05;;;;;;;7.07;1.75;;;;;;;21.23;100.00;96606.28;5030827;28;20033;-66
2022/07/29 07:31:31;;;;;;;3.25;1.80;;;;;;;22.02;100.00;96596.47;5029750;28;20475;-67
2022/07/29 07:33:56;;;;;;;2.72;1.38;;;;;;;22.51;99.94;96609.31;5029765;28;20042;-67
2022/07/29 07:36:22;;;;;;;1.58;0.90;;;;;;;22.56;100.00;96607.97;5030262;28;20052;-68
2022/07/29 07:38:47;;;;;;;2.33;1.30;;;;;;;22.82;99.26;96611.50;5031780;28;20486;-67
2022/07/29 07:41:13;;;;;;;4.75;1.60;;;;;;;23.26;96.51;96617.19;5029488;28;20157;-68
2022/07/29 07:43:38;;;;;;;3.42;1.33;;;;;;;23.87;92.41;96631.00;5029373;28;20396;-67
2022/07/29 07:46:04;;;;;;;3.30;1.27;;;;;;;23.74;92.84;96634.63;5031711;28;20052;-68
2022/07/29 07:48:29;;;;;;;3.47;1.20;;;;;;;24.31;89.48;96630.88;5034586;28;20500;-68
2022/07/29 07:50:55;;;;;;;3.85;1.40;;;;;;;24.89;85.61;96638.56;5034757;28;20037;-68
2022/07/29 07:53:21;;;;;;;3.75;1.10;;;;;;;24.88;84.65;96639.81;5034505;28;20029;-67
2022/07/29 07:55:46;;;;;;;2.10;1.30;;;;;;;24.61;85.18;96635.72;5040161;28;20026;-68
2022/07/29 07:58:11;;;;;;;3.08;1.17;;;;;;;24.25;87.12;96644.72;5039844;28;20472;-69
2022/07/29 08:00:37;;;;;;;3.97;1.17;;;;;;;24.36;87.62;96653.47;5037213;28;20052;-66
2022/07/29 08:03:03;;;;;;;2.13;1.20;;;;;;;24.34;86.82;96650.34;5030880;28;20044;-67
2022/07/29 08:05:28;;;;;;;2.95;1.50;;;;;;;23.93;90.19;96649.53;5018506;28;20478;-69
2022/07/29 08:07:54;;;;;;;11.05;5.65;;;;;;;23.88;90.98;96652.91;5015548;28;20060;-68
2022/07/29 08:13:05;;;;;;;4.82;1.85;;;;;;;24.41;86.54;96654.88;5020666;28;20160;-68
2022/07/29 08:15:31;;;;;;;3.53;1.58;;;;;;;23.58;91.15;96648.78;5017662;28;20045;-68
2022/07/29 08:17:57;;;;;;;5.60;2.13;;;;;;;23.99;88.35;96644.91;5024680;28;20049;-69
2022/07/29 08:20:22;;;;;;;4.20;1.50;;;;;;;24.29;86.24;96650.16;5025892;28;20140;-70
2022/07/29 08:22:48;;;;;;;3.65;1.45;;;;;;;24.15;87.52;96645.94;5027340;28;20489;-69
2022/07/29 08:25:13;;;;;;;6.25;1.80;;;;;;;24.64;84.61;96653.59;5020212;28;20092;-68
2022/07/29 08:27:39;;;;;;;5.35;2.00;;;;;;;24.89;82.47;96651.81;5021686;28;20433;-68
2022/07/29 08:30:05;;;;;;;4.63;1.45;;;;;;;25.42;79.92;96648.75;5011883;28;20045;-68
2022/07/29 08:32:31;;;;;;;3.55;1.80;;;;;;;25.05;81.12;96650.72;5029404;28;20052;-70
2022/07/29 08:34:56;;;;;;;4.13;1.60;;;;;;;24.26;86.67;96649.06;5027754;28;20049;-69
2022/07/29 08:37:22;;;;;;;4.63;2.58;;;;;;;24.96;81.34;96651.50;5019723;28;20127;-69
2022/07/29 08:39:47;;;;;;;3.08;1.90;;;;;;;24.57;84.14;96654.66;5026090;28;20041;-72
2022/07/29 08:42:13;;;;;;;5.53;2.42;;;;;;;24.75;81.52;96639.94;5043213;28;20064;-70
2022/07/29 08:44:39;;;;;;;4.03;1.63;;;;;;;25.15;80.09;96652.31;5040347;28;20037;-71
2022/07/29 08:47:05;;;;;;;3.28;1.88;;;;;;;23.84;86.09;96641.88;5026244;28;20045;-69
2022/07/29 08:49:33;;;;;;;5.95;2.10;;;;;;;23.88;86.46;96647.31;5025991;28;20149;-68
2022/07/29 08:51:59;;;;;;;2.30;1.50;;;;;;;24.26;84.31;96637.88;5023707;28;20049;-70
2022/07/29 08:54:25;;;;;;;5.38;1.85;;;;;;;24.21;84.65;96642.03;5021635;28;20056;-70
2022/07/29 08:56:51;;;;;;;4.72;1.83;;;;;;;24.32;84.13;96640.84;5025685;28;20046;-68
2022/07/29 08:59:20;;;;;;;2.88;1.83;;;;;;;24.13;84.08;96654.78;5020285;28;20155;-70
2022/07/29 09:01:47;;;;;;;5.43;1.80;;;;;;;23.86;85.92;96652.59;5024211;28;20498;-69
2022/07/29 09:04:14;;;;;;;5.05;2.38;;;;;;;23.71;88.43;96659.91;5016183;28;20045;-69
2022/07/29 09:06:46;;;;;;;4.80;1.88;;;;;;;23.37;90.92;96659.53;5020905;28;20038;-69
2022/07/29 09:09:13;;;;;;;4.22;2.08;;;;;;;23.20;93.45;96672.84;5007497;28;20042;-69
2022/07/29 09:11:40;;;;;;;3.40;1.80;;;;;;;22.71;96.73;96668.47;5044324;28;20482;-70
2022/07/29 09:14:06;;;;;;;6.93;2.10;;;;;;;22.67;97.01;96669.78;5018982;28;20116;-68
2022/07/29 09:16:49;;;;;;;5.43;2.55;;;;;;;22.49;97.20;96678.72;5021690;28;20133;-70
2022/07/29 09:19:29;;;;;;;3.03;2.17;;;;;;;22.29;97.42;96676.97;5017548;28;20044;-68
2022/07/29 09:21:59;;;;;;;3.58;2.35;;;;;;;22.49;97.37;96675.94;5022522;28;20045;-69
2022/07/29 09:24:43;;;;;;;5.60;2.45;;;;;;;22.58;97.65;96683.66;5009885;28;20179;-68
2022/07/29 09:27:19;;;;;;;4.85;2.30;;;;;;;22.50;97.33;96677.53;5016786;28;20045;-69
2022/07/29 09:29:44;;;;;;;4.88;2.80;;;;;;;22.50;98.65;96681.09;5023224;28;20128;-69
2022/07/29 09:32:12;;;;;;;4.32;2.70;;;;;;;22.66;97.02;96685.00;5018482;28;20132;-69
2022/07/29 09:34:38;;;;;;;6.45;3.08;;;;;;;22.60;99.58;96690.38;5021440;28;20072;-68
2022/07/29 09:37:04;;;;;;;6.00;2.75;;;;;;;22.50;99.23;96678.28;5020229;28;20490;-70
2022/07/29 09:39:49;;;;;;;5.88;2.95;;;;;;;22.43;100.00;96686.13;5022316;28;20042;-67
2022/07/29 09:42:27;;;;;;;4.40;2.95;;;;;;;22.11;100.00;96691.41;5008970;28;20100;-69
2022/07/29 09:44:53;;;;;;;5.03;3.25;;;;;;;21.94;100.00;96684.34;5021053;28;20045;-69
2022/07/29 09:47:21;;;;;;;4.78;3.28;;;;;;;21.87;100.00;96699.25;5017849;28;20053;-67
2022/07/29 09:49:57;;;;;;;4.93;3.05;;;;;;;21.75;100.00;96692.44;5020487;28;20128;-68
2022/07/29 09:52:24;;;;;;;7.03;3.30;;;;;;;21.74;100.00;96687.31;5018987;28;20428;-69
2022/07/29 09:54:51;;;;;;;4.45;3.50;;;;;;;21.77;100.00;96690.00;5022308;28;20042;-68
2022/07/29 09:57:26;;;;;;;5.93;3.88;;;;;;;21.54;100.00;96681.91;5018541;28;20041;-70
2022/07/29 10:00:08;;;;;;;6.55;3.17;;;;;;;21.62;100.00;96680.47;5023889;28;20400;-68
2022/07/29 10:02:35;;;;;;;8.45;3.50;;;;;;;21.52;100.00;96673.19;5023619;28;20049;-69
2022/07/29 10:05:03;;;;;;;3.88;3.13;;;;;;;21.39;100.00;96662.75;5022683;28;20042;-69
2022/07/29 10:07:47;;;;;;;7.03;3.55;;;;;;;21.20;100.00;96678.38;5021534;28;20096;-70
2022/07/29 10:10:29;;;;;;;6.07;3.60;;;;;;;20.80;100.00;96672.25;5016678;28;20443;-69
2022/07/29 10:12:57;;;;;;;4.47;3.17;;;;;;;20.86;100.00;96666.94;5017145;28;20045;-70
2022/07/29 10:15:24;;;;;;;4.47;3.20;;;;;;;21.27;100.00;96659.91;5023564;28;20088;-69
2022/07/29 10:17:51;;;;;;;14.55;5.80;;;;;;;21.33;100.00;96656.13;5030142;28;20045;-68
2022/07/29 10:20:17;;;;;;;20.63;12.45;;;;;;;;;;5029431;28;20041;-68
2022/07/29 10:22:43;;;;;;;10.73;3.95;;;;;;;21.90;100.00;96653.00;5032739;28;20255;-72
2022/07/29 10:25:10;;;;;;;3.42;2.47;;;;;;;22.09;100.00;96642.88;5043008;28;20040;-69
2022/07/29 10:27:36;;;;;;;9.30;5.15;;;;;;;22.03;100.00;96642.66;5041544;28;20049;-69
2022/07/29 10:30:04;;;;;;;4.88;3.05;;;;;;;22.34;98.09;96647.72;5024339;28;20033;-69
2022/07/29 10:32:48;;;;;;;4.47;2.50;;;;;;;22.41;100.00;96655.84;5021346;28;20045;-69
2022/07/29 10:35:32;;;;;;;5.05;2.50;;;;;;;22.14;100.00;96656.28;5017864;28;20486;-68
2022/07/29 10:38:24;;;;;;;5.78;2.88;;;;;;;22.35;100.00;96662.47;5021641;28;20045;-68
2022/07/29 10:41:26;;;;;;;4.75;2.70;;;;;;;22.59;97.20;96668.47;5005812;28;20045;-70
2022/07/29 10:43:53;;;;;;;3.80;2.58;;;;;;;22.50;100.00;96669.16;5016299;28;20048;-69
2022/07/29 10:46:19;;;;;;;6.05;3.25;;;;;;;22.86;98.86;96662.41;5015820;28;20049;-68
2022/07/29 10:49:08;;;;;;;9.27;3.30;;;;;;;22.65;97.40;96661.91;5017993;28;20457;-69
2022/07/29 10:52:09;;;;;;;6.10;2.97;;;;;;;22.83;96.98;96649.34;5000449;28;20137;-69
2022/07/29 10:54:34;;;;;;;4.50;3.10;;;;;;;22.97;94.48;96637.69;5001626;28;20042;-69
2022/07/29 10:57:12;;;;;;;6.82;3.60;;;;;;;23.07;96.38;96638.59;5023551;28;20048;-69
2022/07/29 10:59:38;;;;;;;5.18;3.88;;;;;;;22.77;96.14;96628.81;5005084;28;20081;-68
2022/07/29 11:02:33;;;;;;;12.57;5.57;;;;;;;22.79;96.02;96621.53;5002740;28;20425;-68
2022/07/29 11:04:59;;;;;;;6.75;4.38;;;;;;;22.91;96.26;96620.72;5016980;28;20076;-69
2022/07/29 11:07:26;;;;;;;4.85;3.13;;;;;;;22.98;94.53;96628.09;5015836;28;20107;-68
2022/07/29 11:10:14;;;;;;;4.00;3.30;;;;;;;22.85;92.01;96627.34;5018887;28;20112;-68
2022/07/29 11:12:42;;;;;;;6.80;3.00;;;;;;;22.75;94.08;96625.69;5012753;28;20126;-68
2022/07/29 11:15:12;;;;;;;6.43;3.65;;;;;;;22.73;95.10;96626.13;5016411;28;20041;-68
2022/07/29 11:17:53;;;;;;;4.88;3.20;;;;;;;22.74;96.01;96626.91;5022541;28;20049;-69
2022/07/29 11:20:38;;;;;;;6.95;3.58;;;;;;;22.21;97.64;96621.81;5019403;28;20041;-69
2022/07/29 11:23:30;;;;;;;5.22;3.38;;;;;;;22.39;96.09;96621.28;5023695;28;20129;-68
2022/07/29 11:26:10;;;;;;;5.43;3.63;;;;;;;22.62;93.93;96626.50;5028237;28;20050;-68
2022/07/29 11:28:49;;;;;;;5.32;3.50;;;;;;;22.77;93.58;96626.78;5032806;28;20046;-69
2022/07/29 11:31:18;;;;;;;5.70;3.78;;;;;;;23.13;91.47;96631.19;5039597;28;20060;-68
2022/07/29 11:33:44;;;;;;;5.22;3.58;;;;;;;23.39;87.80;96628.31;5047006;28;20056;-68
2022/07/29 11:36:12;;;;;;;8.57;3.97;;;;;;;23.99;84.08;96628.13;5030116;28;20053;-69
2022/07/29 11:38:38;;;;;;;5.82;3.58;;;;;;;23.60;84.44;96630.31;5028173;28;20760;-68
2022/07/29 11:41:26;;;;;;;6.75;3.95;;;;;;;23.90;83.69;96622.47;5019903;28;20037;-67
2022/07/29 11:43:57;;;;;;;5.30;3.10;;;;;;;24.39;81.22;96627.34;5023396;28;20099;-67